Logs for Lee Parshook, Tampa, FL, USA [EL88rc]
Paging Controls
Date UTC KHz ID Location S/P ITU Region GSQ LSB USB Sec. Fmt. Power KM Miles
2018-12-08 0521 260 MTH Marathon FL USA na EL94kr 100 401 249
2018-12-08 0444 365 PAL Palma EQA sa FI07cx 1000 3362 2089
2018-11-28 0843 198 DIW Dixon NC USA na FM14gn 2000 865 537
2018-11-27 0813 391 DDP San Juan / Dorado / Luiz Munoz Marin Intl PR PTR ca FK68tl 2000 1964 1220
2018-11-27 0810 376 ZIN Matthew Town / Great Inagua Island BAH ca FL30dx 400 1193 741
2018-11-27 0756 362 SUR Fitzgerald GA USA na EM81io 25 396 246
2018-11-27 0751 360 PI 'Capok' St Petersburg / Clearwater FL USA na EL87px 21 13
2018-11-26 0735 326 PKZ 'Pickens' Pensacola FL USA na EM60jk 400 522 324
2018-11-26 0729 329 CH 'Ashly' Charleston SC USA na EM92wx 400 589 366
2018-11-26 0725 332 FIS 'Fish Hook' Key West FL USA na EL94cn 400 401 249
2011-11-03 0558 434 SLB Storm Lake IA USA na EN22jo 25 1974 1227
2011-11-03 0551 338 FJ Luuce FL USA na EL97sl 216 134
2011-11-03 0551 338 CYR 'Caidy' Cairo GA USA na EM70wv 25 346 215
2011-11-03 0549 329 AAA 'Abraham' Lincoln IL USA na EN50hd 25 1478 918
2011-11-03 0548 329 CH 'Ashly' Charleston SC USA na EM92wx 400 589 366
2011-11-03 0547 326 PKZ 'Pickens' Pensacola FL USA na EM60jk 400 522 324
2011-11-03 0546 283 UZG 'Zarago' Zaragoza (Ciudad de la Habana) CUB ca EL82xw 250 577 358
2011-11-03 0543 275 GUY Guymon OK USA na DM96fq 25 2017 1254
2011-11-03 0530 269 AHX Athens TX USA na EM22cd 25 1350 839
2011-11-03 0514 264 JUY 'Judd' Andelusia AL USA na EM61th 25 514 319
2011-11-03 0459 260 AP 'Casse' Denver CO USA na DM79nk 100 2408 1496
2011-11-03 0455 257 CEU Clemson SC USA na EM84nq 25 733 455
2011-11-03 0446 253 RHZ Zephyrhills FL USA na EL88wf 43 27
2011-11-03 0444 251 AM 'Pande' Amarillo TX USA na DM95cd 400 1979 1230
2011-11-03 0441 248 HZP Zionsville IN USA na EM69vw 25 1358 844
2011-11-03 0439 248 UL Montreal QC CAN na FN35bl 1000 2077 1290
2011-11-03 0437 248 FRT 'Fairmont' Spartanburg SC USA na EM94av 400 757 470
2011-11-03 0435 248 MOB 'Wisle' Mobile AL USA na EM50us 400 631 392
2011-11-03 0430 242 LKG 'Lindbergh' Americus GA USA na EM72we 25 479 297
2011-11-03 0426 239 HKF 'Hook Field' Middletown OH USA na EM79sl 25 1277 793
2011-11-03 0416 230 UCL Cayo Largo Del Sur (Cayo Largo) CUB ca EL91fo 800 730 453
2011-11-03 0411 227 AB 'Putny' Albany GA USA na EM71uk 407 253
2011-11-03 0409 224 BH 'Mc Den' Birmingham AL USA na EM63nm 400 730 454
2011-11-03 0402 221 BJT 'Bulldog' Athens GA USA na EM83jw 25 652 405
2011-11-03 0401 221 RBW Walterboro SC USA na EM92qw 25 568 353
2011-11-03 0351 221 FX 'Praiz' Fort Lauderdale FL USA na EL96ue 308 191
2011-11-03 0344 219 AY 'Wiket' Waycross GA USA na EM81th 357 222
2011-11-03 0332 203 DMZ Dickson TN USA na EM66gd 25 1006 625
2011-11-03 0326 198 DIW Dixon NC USA na FM14gn 2000 865 537
2011-11-02 0238 440 CHE Chitre PNR ca EJ97tx 2249 1397
2011-11-02 0219 417 HQT 'Harnett' Coats NC USA na FM05pk 25 892 554
2011-11-02 0201 227 TN 'Monry' Trailtown (Miami) FL USA na EL95lu 291 181
2011-11-02 0153 210 CLO Cali (Valle del Cauca) CLM sa FJ13tj 1000 2823 1754
2011-10-16 0237 221 BJT 'Bulldog' Athens GA USA na EM83jw 25 652 405
2010-12-08 0602 406 YLJ Meadow Lake SK CAN na DO54qd 15 3584 2227
2010-12-08 0545 394 DQ Dawson Creek BC CAN na CO95xr 50 4273 2655
2010-12-08 0543 394 SP 'Snore' Spencer IA USA na EN23if 2033 1263
2010-12-08 0541 393 8N Edson AB CAN na DO13sn 50 3951 2455
2010-12-08 0536 356 FWX 'Hazer' New Roads LA USA na EM40gp 909 565
2010-12-08 0525 350 NY Enderby BC CAN na DO00mp 500 3944 2450
2010-12-08 0524 350 DF Deer Lake NL CAN na GN19ge 1000 3170 1970
2010-12-08 0521 346 YXL Sioux Lookout ON CAN na EO40bc 1000 2570 1597
2010-12-08 0506 338 HR 'Sebas' Harlingen TX USA na EL16eh 25 1504 934
2010-12-08 0502 334 YER Fort Severn ON CAN na EO65ex 195 3125 1942
2010-12-08 0458 329 YHN Hornepayne ON CAN na EN79qf 500 2355 1463
2010-12-08 0451 284 QD The Pas MB CAN na DO93lx 500 3246 2017
2010-12-08 0447 276 YHR Chevery QC CAN na GO00el 500 3147 1955
2010-12-08 0446 276 YEL Elliot Lake ON CAN na EN86qi 250 2029 1261
2010-12-08 0427 248 UL Montreal QC CAN na FN35bl 1000 2077 1290
2010-12-08 0422 247 VED Leesville LA USA na EM31hc 1098 682
2010-12-08 0419 242 MMI 'Mc Minn Co.' Athens TN USA na EM75rj 25 832 517
2010-12-08 0324 420 CFY 'Evans' Lake City SC USA na FM03cu 25 691 429
2010-12-08 0316 412 UNG Nueva Gerona (Isla de la Juventud) CUB ca EL81ns 100 705 438
2010-12-06 0249 256 DEF Slidell LA USA na EM50bh 753 468
2010-12-06 0235 245 ARM Wharton TX USA na EL19wg 25 1330 827
2010-12-05 0412 351 YKQ Waskaganish QC CAN na FO01pl 500 2618 1627
2010-12-04 0534 510 OF 'Carsy' Norfolk NE USA na EN11gv 2042 1269
2010-12-04 0431 278 D Nueva Gerona CUB ca EL81ot 700 435
2010-12-04 0417 263 LB 'Freep' Angleton / Lake Jackson TX USA na EL29ge 1265 786
2010-12-04 0359 248 PQF Mesquite TX USA na EM12rt 25 1439 894
2010-12-04 0358 245 MG 'Marra' Montgomery AL USA na EM62rh 605 376
2010-12-04 0351 245 HU 'Yinno' Terre Haute IN USA na EM69hj 1332 828
2010-12-04 521 RPK Middlesboro-Bell KY USA na EM86do 25 951 591
2010-12-03 0506 258 ZSJ Sandy Lake ON CAN na EO33hb 500 2914 1811
2010-12-03 0455 248 WG Winnipeg MB CAN na EN19hv 250 2729 1696
2010-12-03 0453 248 UL Montreal QC CAN na FN35bl 1000 2077 1290
2010-12-03 0437 242 EL 'Valtr' El Paso TX USA na DM61uu 400 2320 1441
2010-12-03 0359 212 UMO Moa (Holguin) CUB ca FL20mp 350 1129 702
2010-12-02 0508 420 PK Olathe KS USA na EM28ps 25 1634 1015
2010-12-02 0453 278 FD 'Earli' Poplar Bluff MO USA na EM46uq 1199 745
2010-12-02 0425 396 YPH Inukjuak QC CAN na FO08wk 500 3389 2106
2010-12-02 0403 392 BZE Belize City BLZ ca EK57um 1315 817
2010-11-25 0325 392 ML Charlevoix QC CAN na FN47uo 500 2413 1499
2010-11-24 0440 428 POH Pocahontas IA USA na EN22qr 25 1955 1215
2010-11-24 0422 410 BA 'Clifs' Columbus IN USA na EM79ch 25 1281 796
2010-11-24 0410 407 IL 'Airbo' Wilmington OH USA na EM89dl 25 1269 789
2010-11-24 0405 403 BPO 'Piney Grove' Oneida TN USA na EM76sm 25 953 592
2010-11-24 0404 400 XW 'Flmng' Mason KY USA na EM88en 1167 725
2010-11-24 0401 400 OLM Olmedo EQA sa FJ00xd 3145 1954
2010-11-24 0351 397 CIR Cairo IL USA na EM57jb 25 1175 730
2010-11-24 0349 396 YPH Inukjuak QC CAN na FO08wk 500 3389 2106
2010-11-24 0336 396 JC Rigolet NL CAN na GO04se 500 3495 2171
2010-11-24 0324 233 QN Nakina ON CAN na EO60qe 400 2479 1540
2010-11-24 0311 230 UCL Cayo Largo Del Sur (Cayo Largo) CUB ca EL91fo 800 730 453
2010-11-24 0053 347 TKB 'Kleberg Co' Kingsville TX USA na EL07wo 25 1532 952
2010-11-22 0945 400 AHQ Wahoo NE USA na EN11qf 1941 1206
2010-11-22 0931 392 BZE Belize City BLZ ca EK57um 1315 817
2010-11-22 0927 393 BZ 'Fossi' Clinton OK USA na EM05jk 25 1770 1100
2010-11-22 0924 391 DDP San Juan / Dorado / Luiz Munoz Marin Intl PR PTR ca FK68tl 2000 1964 1220
2010-11-20 1839 283 UZG 'Zarago' Zaragoza (Ciudad de la Habana) CUB ca EL82xw 250 577 358
2010-11-20 1816 198 DIW Dixon NC USA na FM14gn 2000 865 537
2010-11-20 0434 242 MMI 'Mc Minn Co.' Athens TN USA na EM75rj 25 832 517
2010-11-19 1053 513 PP 'Flick' Crescent IA USA na EN21bj 1910 1187
2010-11-19 1010 404 FNB 'Brenner' Falls City NE USA na EN20eb 25 1790 1112
2010-11-19 1007 401 YPO Peawanuck ON CAN na EO74gx 125 2997 1862
2010-11-19 0950 400 PIE Piedecuesta / Bucaramanga (Santander) CLM sa FJ36kv 2557 1589
2010-11-19 0124 275 ADF Arkadelphia AR USA na EM34kb 25 1205 749
2010-11-19 0113 278 EOE 'Enoree' Newberry SC USA na EM94eh 25 696 432
2010-11-15 2134 339 A 'La Habana' Ciudad de la Habana CUB ca EL82sx 100 570 354
2010-11-15 2115 420 V 'Varder' Varadero, Santo Domingo (Villa Clara) CUB ca EL93ga 575 358
2010-11-14 1038 512 HMY 'Muldrow' Lexington OK USA na EM15ja 25 1585 985
2010-11-14 1033 251 AM 'Pande' Amarillo TX USA na DM95cd 400 1979 1230
2010-11-14 1031 248 WG Winnipeg MB CAN na EN19hv 250 2729 1696
2010-11-14 1017 417 IY 'Chukk' Charles City IA USA na EN33pd 25 1904 1183
2010-11-14 1013 414 MSD Mansfield LA USA na EM32cb 25 1167 725
2010-11-14 1007 411 SDA Shenandoah IA USA na EN20hs 25 1831 1138
2010-11-14 1000 220 BX Blanc Sablon / Lourdes de Blanc Sablon QC CAN na GO11jk 2000 3344 2078
2010-11-14 0957 219 ZRS 'Ajax' Regina SK CAN na DO70pl 3109 1932
2010-11-14 0937 206 TEL Tell City IN USA na EM68pa 25 1168 726
2010-11-14 0935 206 QI Yarmouth NS CAN na FN63wt 500 2278 1416
2010-11-14 0100 414 SU 'Salix' Sioux City IA USA na EN12uh 40 2008 1248
2010-11-13 0631 529 LYQ Morrison TN USA na EM65xo 100 897 557
2010-11-13 0622 526 OJ 'Furor' Olathe KS USA na EM28pw 1647 1023
2010-11-13 0619 521 TO 'Biloy' Topeka KS USA na EM29dc 25 1723 1071
2010-11-13 0616 515 PN 'Ponca' Ponca City OK USA na EM16kt 25 1673 1039
2010-11-13 0615 515 ONH 'Noah' Jefferson City MO USA na EM38vp 1474 916
2010-11-13 0609 450 PPA Puerto Plata DOM ca FK49rs 1530 950
2010-11-13 0550 415 SLS Salinas (Guayas) EQA sa EI97mt 3372 2095
2010-11-13 0533 218 RL Red Lake ON CAN na EO31cb 1000 2721 1691
2010-11-13 0521 212 UCF Cienfuegos (Cienfuegos) CUB ca EL92sc 350 699 434
2010-11-13 0436 230 UCL Cayo Largo Del Sur (Cayo Largo) CUB ca EL91fo 800 730 453
2010-11-13 0430 230 BNZ Abbeville LA USA na EL39wx 25 954 593
2010-11-12 0539 420 V 'Varder' Varadero, Santo Domingo (Villa Clara) CUB ca EL93ga 575 358
2010-11-12 0538 417 HHG Huntington IN USA na EN70gu 25 1442 896
2010-11-12 0502 395 CWV Claxton GA USA na EM92be 458 285
2010-11-11 0449 434 SLB Storm Lake IA USA na EN22jo 25 1974 1227
2010-11-11 0431 278 FD 'Earli' Poplar Bluff MO USA na EM46uq 1199 745
2010-11-11 0425 272 YQA Muskoka ON CAN na FN05ia 400 1902 1182
2010-11-11 0423 272 PIM Pine Mountain GA USA na EM72nu 25 573 356
2010-11-11 0327 403 BPO 'Piney Grove' Oneida TN USA na EM76sm 25 953 592
2010-11-11 0314 415 DJD Canton GA USA na EM74sg 25 709 441
2010-11-10 0245 221 HYE 'Hanchey' Fort Rucker (Ozark) AL USA na EM71ei 468 291
2010-11-09 1858 415 CBC West End (Cayman Brac) CYM ca FK09bq 600 974 605
2010-11-09 1853 388 AM 'Picny' Tampa FL USA na EL87ru 400 28 17
2010-11-09 1853 368 TP 'Cosme' Tampa FL USA na EL88rc 0 0
2010-11-09 1852 360 PI 'Capok' St Petersburg / Clearwater FL USA na EL87px 21 13
2010-11-09 1852 349 AAF Apalachicola FL USA na EL79lr 25 303 188
2010-11-09 1852 253 RHZ Zephyrhills FL USA na EL88wf 43 27
2010-11-09 1851 344 ZIY George Town / Grand Cayman Island CYM ca EK99hg 989 615
2010-11-09 1851 344 IWJ 'Early County' Blakely GA USA na EM71ok 25 429 267
2010-11-09 1849 341 FM 'Caloo' Fort Meyers FL USA na EL96am 185 115
2010-11-09 1848 338 CYR 'Caidy' Cairo GA USA na EM70wv 25 346 215
2010-11-09 1847 338 FJ Luuce FL USA na EL97sl 216 134
2010-11-09 1847 336 RS 'Muffe' Fort Meyers FL USA na EL96bl 192 119
2010-11-09 1846 335 LEE Leesburg FL USA na EL98ct 25 108 67
2010-11-09 1846 332 FIS 'Fish Hook' Key West FL USA na EL94cn 400 401 249
2010-11-09 1845 326 PKZ 'Pickens' Pensacola FL USA na EM60jk 400 522 324
2010-11-09 1841 275 FPR Fort Pierce FL USA na EL97tl 49 224 139
2010-11-09 1837 269 GN 'Wynds' Gainesville FL USA na EL89vq 25 179 111
2010-11-09 1837 268 UBY Bayamo (Granma) CUB ca FL10qj 50 1045 650
2010-11-09 1836 266 TM Tamiami Executive Airport, Miami FL USA na EL95rp 338 210
2010-11-09 1834 260 MTH Marathon FL USA na EL94kr 100 401 249
2010-11-09 1832 257 SQT 'Satellite' Melbourne FL USA na EL98pc 180 112
2010-11-09 1832 245 GTP 'Patten' Thomasville GA USA na EM80cw 337 210
2010-11-09 1822 243 IAK Palatka FL USA na EL99cp 25 186 116
2010-11-09 1810 227 LA 'Wirey' Lakeland FL USA na EL87xw 52 33
2010-11-09 1808 221 OR 'Henry' Orlando FL USA na EL98gm 116 72
2010-11-09 1808 221 FX 'Praiz' Fort Lauderdale FL USA na EL96ue 308 191
2010-11-09 1804 216 CLB Wilmington / Carolina Beach NC USA na FM14ac 797 495
2010-11-09 1754 209 HOE Homerville GA USA na EM81ob 25 330 205
2010-11-09 1750 206 VNC Venice FL USA na EL87sb 25 116 72
2010-11-09 1750 204 LCQ Lake City FL USA na EM80re 25 232 144
2010-11-09 0254 353 LI 'Lasky' Little Rock AR USA na EM34uq 400 1179 732
2010-11-09 0252 344 JA 'Dinns' Jacksonville FL USA na EM90cl 400 274 170
2010-11-09 0252 344 IWJ 'Early County' Blakely GA USA na EM71ok 25 429 267
2010-11-09 0235 329 CH 'Ashly' Charleston SC USA na EM92wx 400 589 366
2010-11-09 0232 326 PKZ 'Pickens' Pensacola FL USA na EM60jk 400 522 324
2010-11-09 0223 263 DYQ 'Dulaney' Greenville TN USA na EM86nd 25 895 556
2010-11-09 0219 260 MTH Marathon FL USA na EL94kr 100 401 249
2010-11-09 0218 257 SQT 'Satellite' Melbourne FL USA na EL98pc 180 112
2010-11-09 0212 248 FRT 'Fairmont' Spartanburg SC USA na EM94av 400 757 470
2010-11-09 0211 245 JYL Sylvania GA USA na EM92ep 25 512 318
2010-11-09 0209 245 PTN Patterson LA USA na EL49hr 878 546
2010-11-09 0207 245 YZE Gore Bay ON CAN na EN85qw 400 1982 1232
2010-11-09 0204 242 CUH Cushing OK USA na EM15ov 25 1596 992
2010-11-09 0203 242 LKG 'Lindbergh' Americus GA USA na EM72we 25 479 297
2010-11-09 0202 239 LNC Lancaster TX USA na EM12pn 25 1445 898
2010-11-09 0150 224 BH 'Mc Den' Birmingham AL USA na EM63nm 400 730 454
2010-11-09 0149 230 UCL Cayo Largo Del Sur (Cayo Largo) CUB ca EL91fo 800 730 453
2010-11-09 0136 434 SLB Storm Lake IA USA na EN22jo 25 1974 1227
2010-11-09 0135 432 IZN Lincolnton NC USA na EM95km 25 835 519
2010-11-09 0133 428 POH Pocahontas IA USA na EN22qr 25 1955 1215
2010-11-09 0132 428 SYW 'Cash' Greenville TX USA na EM12xx 25 1400 870
2010-11-09 0130 426 IZS Montezuma GA USA na EM72xi 25 494 307
2010-11-09 0129 426 FTP Fort Payne AL USA na EM74dm 25 774 481
2010-11-09 0128 424 RVJ 'Prison' Reidsville GA USA na EM82wb 25 442 275
2010-11-09 0126 423 OC 'Jumpi' Ocala FL USA na EL89vb 111 69
2010-11-09 0125 423 AU 'Opole' Auburn AL USA na EM72gm 565 351
2010-11-09 0121 420 V 'Varder' Varadero, Santo Domingo (Villa Clara) CUB ca EL93ga 575 358
2010-11-09 0120 420 FQ 'Montz' Fairmont MN USA na EN23tp 25 2025 1258
2010-11-09 0119 419 TX 'Gwnet' Lawrenceville GA USA na EM84ba 25 670 416
2010-11-09 0118 417 IY 'Chukk' Charles City IA USA na EN33pd 25 1904 1183
2010-11-09 0117 417 HHG Huntington IN USA na EN70gu 25 1442 896
2010-11-09 0111 415 DJD Canton GA USA na EM74sg 25 709 441
2010-11-09 0110 415 CBC West End (Cayman Brac) CYM ca FK09bq 600 974 605
2010-11-09 0109 414.5 RPB 'Republican' Belleville KS USA na EM19et 1900 1180
2010-11-09 0107 412 JHH Griffin GA USA na EM73ve 587 365
2010-11-09 0106 414 CSS 'Court House' Washington Court House OH USA na EM89ho 25 1281 796
2010-11-09 0056 410 XBR 'Brantley' Fort Rucker (Ozark) AL USA na EM61un 528 328
2010-11-09 0049 407 OOC 'Campi' Natchitoches LA USA na EM31lp 25 1085 674
2010-11-09 0049 407 BZ 'Bullo' Statesboro GA USA na EM92ek 25 490 304
2010-11-09 0045 404 FNB 'Brenner' Falls City NE USA na EN20eb 25 1790 1112
2010-11-09 0031 400 XW 'Flmng' Mason KY USA na EM88en 1167 725
2010-11-08 2357 400 UWI 'Whitfield' Dalton GA USA na EM74ms 25 776 482
2010-11-08 2345 206 VNC Venice FL USA na EL87sb 25 116 72
2010-11-08 2344 204 LCQ Lake City FL USA na EM80re 25 232 144
2010-11-08 2343 204 ESU 'Summerdale' Foley AL USA na EM60dl 25 566 352
2010-11-08 2343 198 DIW Dixon NC USA na FM14gn 2000 865 537
2010-11-08 2316 417 SLP 'First River' Shelby NC USA na EM95eg 25 801 498
2010-11-08 2307 414 AZE Hazlehurst GA USA na EM81qv 422 262
2010-11-08 2257 404 CKI Kingstree SC USA na FM03br 25 675 419
2010-11-07 2337 408 LQK 'Lake Keowee' Pickins SC USA na EM84pt 25 746 463
2010-11-07 2323 403 BPO 'Piney Grove' Oneida TN USA na EM76sm 25 953 592
2010-02-11 0427 346 THJ 'Tallahala' Laurel MS USA na EM51jq 25 756 470
2010-02-11 0336 434 SLB Storm Lake IA USA na EN22jo 25 1974 1227
2010-02-11 0331 425 PFL Fort Sill OK USA na EM04to 1665 1035
2010-02-11 0319 419 TX 'Gwnet' Lawrenceville GA USA na EM84ba 25 670 416
2010-02-11 0313 413 YHD Dryden ON CAN na EN39nu 250 2572 1598
2010-02-11 0309 414 SU 'Salix' Sioux City IA USA na EN12uh 40 2008 1248
2010-02-11 0258 404 FNB 'Brenner' Falls City NE USA na EN20eb 25 1790 1112
2010-02-11 0237 329 SMY 'Soyya' Marianna FL USA na EM70ju 400 249
2010-02-11 0230 332 YFM La Grande 4 QC CAN na FO33dr 2000 2939 1826
2010-02-11 0221 344 IWJ 'Early County' Blakely GA USA na EM71ok 25 429 267
2010-02-11 0219 341 MYZ Marysville KS USA na EM19qu 1837 1142
2010-01-31 0103 410 DQU De Quincy LA USA na EM30gk 1089 677
2010-01-31 0025 339 UCU Santiago De Cuba (Santiago de Cuba) CUB ca FK29cx 1133 704
2010-01-31 0022 250 UPB Playa Baracoa (Ciudad de la Habana) CUB ca EL83ra 565 351
2010-01-30 0357 329 CH 'Ashly' Charleston SC USA na EM92wx 400 589 366
2010-01-30 0350 278 NM Matagami QC CAN na FN19dr 400 2439 1515
2010-01-30 0335 260 BVQ 'Beaver Creek' Glasgow KY USA na EM67xa 25 1044 649
2010-01-30 0327 258 ZSJ Sandy Lake ON CAN na EO33hb 500 2914 1811
2010-01-30 0315 245 YZE Gore Bay ON CAN na EN85qw 400 1982 1232
2010-01-30 0312 240 USC 'Santa Clara' Villa Santa Clara (Villa Clara) CUB ca FL02al 677 421
2010-01-30 0306 239 HKF 'Hook Field' Middletown OH USA na EM79sl 25 1277 793
2010-01-30 0259 230 UCL Cayo Largo Del Sur (Cayo Largo) CUB ca EL91fo 800 730 453
2010-01-30 0257 227 AB 'Putny' Albany GA USA na EM71uk 407 253
2010-01-28 0545 521 TVX Greencastle IN USA na EM69or 1350 839
2010-01-28 0536 417 IY 'Chukk' Charles City IA USA na EN33pd 25 1904 1183
2010-01-28 0504 281 DEQ De Queen AR USA na EM24tb 25 1306 811
2010-01-28 0450 275 BKK 'Tri County' Bonifay FL USA na EM70eu 427 265
2010-01-28 0050 450 PPA Puerto Plata DOM ca FK49rs 1530 950
2010-01-27 0205 272 PIM Pine Mountain GA USA na EM72nu 25 573 356
2010-01-27 0201 268 UBY Bayamo (Granma) CUB ca FL10qj 50 1045 650
2010-01-20 2049 415 CBC West End (Cayman Brac) CYM ca FK09bq 600 974 605
2010-01-20 2044 344 ZIY George Town / Grand Cayman Island CYM ca EK99hg 989 615
2010-01-20 2032 283 UZG 'Zarago' Zaragoza (Ciudad de la Habana) CUB ca EL82xw 250 577 358
2010-01-14 0115 330 GLE Gainesville TX USA na EM13jr 1530 951
2010-01-14 0114 329 HMA Hondo TX USA na EL09ji 25 1629 1012
2009-11-28 0202 263 DYQ 'Dulaney' Greenville TN USA na EM86nd 25 895 556
2009-11-28 0134 212 OZ 'Ruckr' Fort Rucker (Ozark) AL USA na EM71cf 468 291
2009-11-28 0129 217 HZD Huntingdon TN USA na EM56sc 1049 652
2009-11-19 0545 428 SYW 'Cash' Greenville TX USA na EM12xx 25 1400 870
2009-11-19 0545 426 IZS Montezuma GA USA na EM72xi 25 494 307
2009-11-19 0542 420 FQ 'Montz' Fairmont MN USA na EN23tp 25 2025 1258
2009-11-19 0542 420 V 'Varder' Varadero, Santo Domingo (Villa Clara) CUB ca EL93ga 575 358
2009-11-19 0538 414.5 RPB 'Republican' Belleville KS USA na EM19et 1900 1180
2009-11-19 0536 407 HRU Herington KS USA na EM18oq 25 1766 1097
2009-11-19 0528 395 YL Lynn Lake MB CAN na DO96lt 1600 3508 2180
2009-11-19 0443 396 YPH Inukjuak QC CAN na FO08wk 500 3389 2106
2009-11-19 0441 365 HQG Hugoton KS USA na DM97hd 25 2024 1258
2009-11-19 0439 365 PBC 'Maury Co' Columbia / Mount Pleasant TN USA na EM65ko 25 939 583
2009-11-19 0430 358 TNY 'Kelso' Fayetteville TN USA na EM65rd 25 869 540
2009-11-19 0426 353 LI 'Lasky' Little Rock AR USA na EM34uq 400 1179 732
2009-11-19 0352 350 RG 'Gally' Oklahoma City OK USA na EM15eh 400 1633 1015
2009-11-19 0345 341 DNI Denison TX USA na EM13pt 25 1490 926
2009-11-19 0343 341 CQN 'Daisy' Chattanooga TN USA na EM75kd 50 820 509
2009-11-19 0339 335 YLD Chapleau ON CAN na EN87hs 100 2187 1359
2009-11-19 0325 328 YTL Big Trout Lake ON CAN na EO53bt 1000 2920 1814
2009-11-19 0317 326 MA 'Farly' Midland TX USA na DM81ux 400 1946 1209
2009-11-19 0313 209 HOE Homerville GA USA na EM81ob 25 330 205
2009-11-18 0308 278 FKR Frankfurt IN USA na EN60rg 25 1401 871
2009-11-18 0306 275 GUY Guymon OK USA na DM96fq 25 2017 1254
2009-11-18 0250 248 FRT 'Fairmont' Spartanburg SC USA na EM94av 400 757 470
2009-11-18 0242 248 MOB 'Wisle' Mobile AL USA na EM50us 400 631 392
2009-11-18 0240 245 JYL Sylvania GA USA na EM92ep 25 512 318
2009-11-18 0238 245 GTP 'Patten' Thomasville GA USA na EM80cw 337 210
2009-11-18 0237 245 YZE Gore Bay ON CAN na EN85qw 400 1982 1232
2009-11-18 0236 245 FS 'Rokky' Sioux Falls SD USA na EN13ol 100 2132 1325
2009-11-18 0233 245 PTN Patterson LA USA na EL49hr 878 546
2009-11-18 0232 242 LKG 'Lindbergh' Americus GA USA na EM72we 25 479 297
2009-11-18 0229 239 LNC Lancaster TX USA na EM12pn 25 1445 898
2009-11-18 0209 230 HPT Hampton IA USA na EN32jr 25 1888 1173
2009-11-18 0159 224 BH 'Mc Den' Birmingham AL USA na EM63nm 400 730 454
2009-11-18 0158 223 YYW Armstrong ON CAN na EO50lh 100 2529 1571
2009-11-17 0451 515 PN 'Ponca' Ponca City OK USA na EM16kt 25 1673 1039
2009-11-17 0448 512 HMY 'Muldrow' Lexington OK USA na EM15ja 25 1585 985
2009-11-17 0445 421 EF 'Fluet' Mc Kinney TX USA na EM13qg 1462 908
2009-11-17 0443 414.5 RPB 'Republican' Belleville KS USA na EM19et 1900 1180
2009-11-17 0440 414 MSD Mansfield LA USA na EM32cb 25 1167 725
2009-11-17 0436 410 XBR 'Brantley' Fort Rucker (Ozark) AL USA na EM61un 528 328
2009-11-17 0434 407 OOC 'Campi' Natchitoches LA USA na EM31lp 25 1085 674
2009-11-17 0429 398 HFY 'Greenwood' Indianapolis IN USA na EM69wp 1325 823
2009-11-17 0414 397 BWK Bunkie LA USA na EM30vu 984 611
2009-11-17 0410 394 DTE 'Mark Anton' Dayton TN USA na EM75ml 25 851 529
2009-11-17 0404 387 SPP San Andres Island / Santander SAP ca EK92do 1725 1072
2009-11-17 0402 385 EMR 'Emory' Augusta GA USA na EM93al 400 600 373
2009-11-17 0400 382 YPL Pickle Lake ON CAN na EO41vk 500 2672 1660
2009-11-17 0358 379 FSK Fort Scott KS USA na EM27ot 25 1569 975
2009-11-17 0355 379 BRA 'Broad River' Asheville NC USA na EM85sg 100 797 495
2009-11-17 0352 376 BHC Baxley GA USA na EM81tr 403 251
2009-11-17 0349 376 ZIN Matthew Town / Great Inagua Island BAH ca FL30dx 400 1193 741
2009-11-17 0346 375 DW 'Owaso' Tulsa OK USA na EM26bh 20 1548 962
2009-11-17 0344 374 FLZ Fort Rucker 'Florala Airport' AL USA na EM61ub 489 304
2009-11-17 0339 370 UCM Camaguey (Camaguey) CUB ca FL11aj 350 877 545
2009-11-17 0334 365 HQG Hugoton KS USA na DM97hd 25 2024 1258
2009-11-17 0333 365 TOI 'Blood' Troy AL USA na EM61wt 538 334
2009-11-17 0331 362 CYW Clay Center KS USA na EM19kj 25 1837 1142
2009-11-17 0327 362 SB Sudbury ON CAN na EN96mp 400 2066 1284
2009-11-17 0306 360 HIT 'Kaolin Field' Sandersville GA USA na EM83ma 25 548 341
2009-11-17 0257 350 NY Enderby BC CAN na DO00mp 500 3944 2450
2009-11-17 0253 350 RG 'Gally' Oklahoma City OK USA na EM15eh 400 1633 1015
2009-11-17 0243 395 ULS Ulysses KS USA na DM97ho 2046 1271
2009-10-14 0503 524 HRD 'Hardin County' Kountze / Silsbee TX USA na EM20ui 25 1166 725
2009-10-14 0502 521 GM 'Judky' Greenville SC USA na EM84ts 741 461
2009-10-14 0500 518 GCT Guthrie Center IA USA na EN21sq 1856 1153
2009-10-14 0458 512 HMY 'Muldrow' Lexington OK USA na EM15ja 25 1585 985
2009-10-14 0448 434 SLB Storm Lake IA USA na EN22jo 25 1974 1227
2009-10-14 0438 426 FTP Fort Payne AL USA na EM74dm 25 774 481
2009-10-14 0437 423 CKP 'Pilot Rock' Cherokee IA USA na EN22fr 25 2002 1244
2009-10-14 0431 420 V 'Varder' Varadero, Santo Domingo (Villa Clara) CUB ca EL93ga 575 358
2009-10-14 0431 420 FQ 'Montz' Fairmont MN USA na EN23tp 25 2025 1258
2009-10-14 0423 413 YHD Dryden ON CAN na EN39nu 250 2572 1598
2009-10-14 0418 414 AZE Hazlehurst GA USA na EM81qv 422 262
2009-10-14 0417 412 JHH Griffin GA USA na EM73ve 587 365
2009-10-14 0416 409 TM 'Tifto' Tifton GA USA na EM81gi 25 372 231
2009-10-14 0415 212 UCF Cienfuegos (Cienfuegos) CUB ca EL92sc 350 699 434
2009-10-14 0411 410 XBR 'Brantley' Fort Rucker (Ozark) AL USA na EM61un 528 328
2009-10-14 0405 406 YLJ Meadow Lake SK CAN na DO54qd 15 3584 2227
2009-10-14 0359 400 ZYG Covehead (Charlottetown) PE CAN na FN86ki 50 2644 1643
2009-10-14 0347 396 YPH Inukjuak QC CAN na FO08wk 500 3389 2106
2009-10-14 0346 397 BWK Bunkie LA USA na EM30vu 984 611
2009-10-14 0345 391 DDP San Juan / Dorado / Luiz Munoz Marin Intl PR PTR ca FK68tl 2000 1964 1220
2009-10-14 0337 362 SUR Fitzgerald GA USA na EM81io 25 396 246
2009-10-14 0332 358 TNY 'Kelso' Fayetteville TN USA na EM65rd 25 869 540
2009-10-14 0328 353 VV 'Junne' Greensboro GA USA na EM83lp 618 384
2009-10-14 0320 350 RG 'Gally' Oklahoma City OK USA na EM15eh 400 1633 1015
2009-10-14 0317 350 NY Enderby BC CAN na DO00mp 500 3944 2450
2009-10-14 0313 350 BEP 'Bay Creek' Perry GA USA na EM82ck 496 308
2009-10-14 0311 349 GW 'Teock' Greenwood MS USA na EM43wo 25 947 588
2009-10-14 0300 344 TV 'Savry' Vicksburg / Tallulah LA USA na EM42lf 25 936 582
2009-10-14 0256 341 YYU Kapuskasing ON CAN na EN89rl 500 2376 1476
2009-10-14 0254 341 CQN 'Daisy' Chattanooga TN USA na EM75kd 50 820 509
2009-10-14 0243 338 CYR 'Caidy' Cairo GA USA na EM70wv 25 346 215
2009-10-14 0239 329 YEK Arviat NU CAN na EP21xc 500 3767 2341
2009-10-14 0231 280 MQW Mc. Rae GA USA na EM82nc 25 446 277
2009-10-14 0226 278 FKR Frankfurt IN USA na EN60rg 25 1401 871
2009-10-14 0209 268 UBY Bayamo (Granma) CUB ca FL10qj 50 1045 650
2009-10-14 0144 248 FRT 'Fairmont' Spartanburg SC USA na EM94av 400 757 470
2009-10-14 0132 245 YZE Gore Bay ON CAN na EN85qw 400 1982 1232
2009-10-13 0242 529 LYQ Morrison TN USA na EM65xo 100 897 557
2009-10-13 0234 512 HMY 'Muldrow' Lexington OK USA na EM15ja 25 1585 985
2009-10-13 0229 450 PPA Puerto Plata DOM ca FK49rs 1530 950
2009-10-13 0219 428 SYW 'Cash' Greenville TX USA na EM12xx 25 1400 870
2009-10-13 0219 426 IZS Montezuma GA USA na EM72xi 25 494 307
2009-10-13 0214 424 RVJ 'Prison' Reidsville GA USA na EM82wb 25 442 275
2009-10-13 0207 407 BZ 'Bullo' Statesboro GA USA na EM92ek 25 490 304
2009-10-13 0159 400 XW 'Flmng' Mason KY USA na EM88en 1167 725
2009-10-13 0152 400 PIE Piedecuesta / Bucaramanga (Santander) CLM sa FJ36kv 2557 1589
2009-10-13 0147 245 JYL Sylvania GA USA na EM92ep 25 512 318
2009-10-13 0143 240 USC 'Santa Clara' Villa Santa Clara (Villa Clara) CUB ca FL02al 677 421
2009-10-13 0140 230 UCL Cayo Largo Del Sur (Cayo Largo) CUB ca EL91fo 800 730 453
2009-10-12 0219 219 AY 'Wiket' Waycross GA USA na EM81th 357 222
2009-10-12 0047 426 FTP Fort Payne AL USA na EM74dm 25 774 481
2009-10-12 0038 419 RYS 'Grosse Ile' Detroit / Grosse Ile MI USA na EN82kc 25 1557 968
2009-10-12 0036 423 AU 'Opole' Auburn AL USA na EM72gm 565 351
2009-10-12 0031 396 CRS Corsicana TX USA na EM12ta 25 1399 869
2009-10-11 2337 209 HOE Homerville GA USA na EM81ob 25 330 205
2009-10-08 0150 512 HMY 'Muldrow' Lexington OK USA na EM15ja 25 1585 985
2009-10-08 0124 339 A 'La Habana' Ciudad de la Habana CUB ca EL82sx 100 570 354
2009-10-07 1959 420 V 'Varder' Varadero, Santo Domingo (Villa Clara) CUB ca EL93ga 575 358
2009-09-29 1746 415 CBC West End (Cayman Brac) CYM ca FK09bq 600 974 605
2009-09-29 1739 379 TL 'Wakul' Tallahassee FL USA na EM70th 400 303 188
2009-09-29 1736 349 AAF Apalachicola FL USA na EL79lr 25 303 188
2009-09-29 1733 344 ZIY George Town / Grand Cayman Island CYM ca EK99hg 989 615
2009-09-29 1731 341 FM 'Caloo' Fort Meyers FL USA na EL96am 185 115
2009-09-29 1729 336 RS 'Muffe' Fort Meyers FL USA na EL96bl 192 119
2009-09-29 1728 335 LEE Leesburg FL USA na EL98ct 25 108 67
2009-09-29 1728 332 FIS 'Fish Hook' Key West FL USA na EL94cn 400 401 249
2009-09-29 1727 329 ISM 'Kissimmee' Orlando FL USA na EL98gg 49 108 67
2009-09-29 1727 326 PKZ 'Pickens' Pensacola FL USA na EM60jk 400 522 324
2009-09-29 1723 275 FPR Fort Pierce FL USA na EL97tl 49 224 139
2009-09-29 1713 269 GN 'Wynds' Gainesville FL USA na EL89vq 25 179 111
2009-09-29 1710 266 TM Tamiami Executive Airport, Miami FL USA na EL95rp 338 210
2009-09-29 1708 260 MTH Marathon FL USA na EL94kr 100 401 249
2009-09-29 1707 257 SQT 'Satellite' Melbourne FL USA na EL98pc 180 112
2009-09-29 1706 253 RHZ Zephyrhills FL USA na EL88wf 43 27
2009-09-29 1659 245 GTP 'Patten' Thomasville GA USA na EM80cw 337 210
2009-09-29 1658 243 IAK Palatka FL USA na EL99cp 25 186 116
2009-09-29 1650 227 LA 'Wirey' Lakeland FL USA na EL87xw 52 33
2009-09-29 1648 221 FX 'Praiz' Fort Lauderdale FL USA na EL96ue 308 191
2009-09-29 1644 216 CLB Wilmington / Carolina Beach NC USA na FM14ac 797 495
2009-09-29 1614 206 VNC Venice FL USA na EL87sb 25 116 72
2009-09-29 1614 206 GLS Galveston TX USA na EL29oi 2000 1202 747
2009-09-29 1614 204 LCQ Lake City FL USA na EM80re 25 232 144
2009-09-29 1608 198 DIW Dixon NC USA na FM14gn 2000 865 537
2009-09-28 0217 428 SYW 'Cash' Greenville TX USA na EM12xx 25 1400 870
2009-09-28 0207 450 PPA Puerto Plata DOM ca FK49rs 1530 950
2009-09-28 0147 400 PIE Piedecuesta / Bucaramanga (Santander) CLM sa FJ36kv 2557 1589
2009-02-12 0555 407 HRU Herington KS USA na EM18oq 25 1766 1097
2009-02-12 0552 401 YPO Peawanuck ON CAN na EO74gx 125 2997 1862
2009-02-12 0549 397 CIN Carroll IA USA na EN22ob 25 1906 1184
2009-02-12 0547 397 BWK Bunkie LA USA na EM30vu 984 611
2009-02-12 0546 395 YL Lynn Lake MB CAN na DO96lt 1600 3508 2180
2009-02-12 0543 248 WG Winnipeg MB CAN na EN19hv 250 2729 1696
2009-02-12 0539 220 BX Blanc Sablon / Lourdes de Blanc Sablon QC CAN na GO11jk 2000 3344 2078
2009-02-12 0537 218 RL Red Lake ON CAN na EO31cb 1000 2721 1691
2009-02-12 0532 434 SLB Storm Lake IA USA na EN22jo 25 1974 1227
2009-02-12 0530 432 IZN Lincolnton NC USA na EM95km 25 835 519
2009-02-12 0528 428 POH Pocahontas IA USA na EN22qr 25 1955 1215
2009-02-12 0525 426 FTP Fort Payne AL USA na EM74dm 25 774 481
2009-02-12 0524 428 SYW 'Cash' Greenville TX USA na EM12xx 25 1400 870
2009-02-12 0518 424 RVJ 'Prison' Reidsville GA USA na EM82wb 25 442 275
2009-02-12 0513 423 AU 'Opole' Auburn AL USA na EM72gm 565 351
2009-02-12 0511 420 TU 'Veron' Tupelo MS USA na EM54oe 25 900 559
2009-02-12 0500 406 YLJ Meadow Lake SK CAN na DO54qd 15 3584 2227
2009-02-12 0455 409 TM 'Tifto' Tifton GA USA na EM81gi 25 372 231
2009-02-12 0452 414 MSD Mansfield LA USA na EM32cb 25 1167 725
2009-02-12 0449 412 JHH Griffin GA USA na EM73ve 587 365
2009-02-12 0440 404 BMW 'Barrow Co' Winder GA USA na EM83ew 25 657 408
2009-02-12 0437 402 IFJ Winnfield LA USA na EM31qx 1061 659
2009-02-12 0437 402 C Camaguey (Camaguey) CUB ca FL11bj 882 548
2009-02-12 0435 400 UWI 'Whitfield' Dalton GA USA na EM74ms 25 776 482
2009-02-12 0419 400 XW 'Flmng' Mason KY USA na EM88en 1167 725
2009-02-12 0351 356 LLU 'Spring River' Lamar MO USA na EM27ul 1512 939
2009-02-12 0345 353 LI 'Lasky' Little Rock AR USA na EM34uq 400 1179 732
2009-02-12 0344 353 QG Saint Clair Beach (Windsor) ON CAN na EN82nh 25 1580 982
2009-02-12 0342 353 UHG Holguin (Holguin) CUB ca FL10tr 800 1030 640
2009-02-12 0300 328 YTL Big Trout Lake ON CAN na EO53bt 1000 2920 1814
2009-02-12 0257 326 MA 'Farly' Midland TX USA na DM81ux 400 1946 1209
2009-02-12 0244 278 UX 'Sulfy' Sulphur LA USA na EM30ge 1084 674
2009-02-12 0241 278 UBA Baracoa (Guantanamo) CUB ca FL20ri 350 1182 735
2009-02-12 0231 264 JUY 'Judd' Andelusia AL USA na EM61th 25 514 319
2009-02-12 0226 263 ECY Eunice LA USA na EM30sn 25 999 621
2009-02-12 0139 245 JYL Sylvania GA USA na EM92ep 25 512 318
2009-02-12 0130 248 FRT 'Fairmont' Spartanburg SC USA na EM94av 400 757 470
2009-02-12 0116 219 AY 'Wiket' Waycross GA USA na EM81th 357 222
2009-02-12 0114 212 OZ 'Ruckr' Fort Rucker (Ozark) AL USA na EM71cf 468 291
2009-02-12 0112 248 MI 'Keyes' Miami FL USA na
2009-02-10 2129 380 UCY 'Cayabo' Cayajabos (Pinar dal Rio) CUB ca EL82nu 100 585 363
2009-02-10 2126 344 ZIY George Town / Grand Cayman Island CYM ca EK99hg 989 615
2009-02-10 2125 338 FJ Luuce FL USA na EL97sl 216 134
2009-02-10 2123 341 FM 'Caloo' Fort Meyers FL USA na EL96am 185 115
2009-02-10 2122 336 RS 'Muffe' Fort Meyers FL USA na EL96bl 192 119
2009-02-10 1903 243 IAK Palatka FL USA na EL99cp 25 186 116
2009-02-10 1902 245 SR 'Ringy' Sarasota / Bradenton FL USA na EL87sh 88 55
2009-02-10 1902 242 PJN 'Plantation' Fort Lauderdale FL USA na EL96vd 317 197
2009-02-10 1859 227 LA 'Wirey' Lakeland FL USA na EL87xw 52 33
2009-02-10 1852 221 OR 'Henry' Orlando FL USA na EL98gm 116 72
2009-02-10 1852 221 FX 'Praiz' Fort Lauderdale FL USA na EL96ue 308 191
2009-02-10 1851 209 HOE Homerville GA USA na EM81ob 25 330 205
2009-02-10 1851 206 VNC Venice FL USA na EL87sb 25 116 72
2009-02-10 1851 206 GLS Galveston TX USA na EL29oi 2000 1202 747
2009-02-10 1850 204 LCQ Lake City FL USA na EM80re 25 232 144
2009-02-10 1850 204 ESU 'Summerdale' Foley AL USA na EM60dl 25 566 352
2009-02-10 1849 198 DIW Dixon NC USA na FM14gn 2000 865 537
2009-02-10 0647 518 GCT Guthrie Center IA USA na EN21sq 1856 1153
2009-02-10 0642 406 YLJ Meadow Lake SK CAN na DO54qd 15 3584 2227
2009-02-10 0631 352 BVG 'Boll Weevil' Enterprise AL USA na EM71ai 489 304
2009-02-10 0631 350 BEP 'Bay Creek' Perry GA USA na EM82ck 496 308
2009-02-10 0629 350 DF Deer Lake NL CAN na GN19ge 1000 3170 1970
2009-02-10 0623 332 QT Thunder Bay ON CAN na EN58gi 1000 2328 1447
2009-02-10 0600 283 UZG 'Zarago' Zaragoza (Ciudad de la Habana) CUB ca EL82xw 250 577 358
2009-02-10 0559 281 DMO Sedalia MO USA na EM38jq 25 1535 954
2009-02-10 0557 278 NM Matagami QC CAN na FN19dr 400 2439 1515
2009-02-10 0553 278 UBA Baracoa (Guantanamo) CUB ca FL20ri 350 1182 735
2009-02-10 0549 268 UBY Bayamo (Granma) CUB ca FL10qj 50 1045 650
2009-02-10 0545 264 JUY 'Judd' Andelusia AL USA na EM61th 25 514 319
2009-02-10 0544 263 DA 'Tomok' Daytona Beach FL USA na EL99kd 180 112
2009-02-10 0542 261 ELQ Emporia VA USA na FM16go 1058 658
2009-02-10 0532 242 EL 'Valtr' El Paso TX USA na DM61uu 400 2320 1441
2009-02-10 0522 230 BNZ Abbeville LA USA na EL39wx 25 954 593
2009-02-10 0519 230 UCL Cayo Largo Del Sur (Cayo Largo) CUB ca EL91fo 800 730 453
2009-02-10 0514 224 BH 'Mc Den' Birmingham AL USA na EM63nm 400 730 454
2009-02-10 0231 396 YPH Inukjuak QC CAN na FO08wk 500 3389 2106
2009-02-10 0225 400 UWI 'Whitfield' Dalton GA USA na EM74ms 25 776 482
2009-02-10 0214 407 OOC 'Campi' Natchitoches LA USA na EM31lp 25 1085 674
2009-02-10 0207 426 FTP Fort Payne AL USA na EM74dm 25 774 481
2009-02-10 0202 428 SYW 'Cash' Greenville TX USA na EM12xx 25 1400 870
2009-02-10 0159 432 IZN Lincolnton NC USA na EM95km 25 835 519
2009-02-10 0158 434 SLB Storm Lake IA USA na EN22jo 25 1974 1227
2009-02-10 0157 450 PPA Puerto Plata DOM ca FK49rs 1530 950
2009-02-10 0052 418 CW 'Mossy' Lake Charles LA USA na EM30jh 25 1063 661
2009-02-10 0051 420 TU 'Veron' Tupelo MS USA na EM54oe 25 900 559
2009-02-10 0045 413 MC 'Ferni' Mc Comb MS USA na EM41rg 25 849 527
2009-02-10 0043 410 XBR 'Brantley' Fort Rucker (Ozark) AL USA na EM61un 528 328
2009-02-10 0040 412 JHH Griffin GA USA na EM73ve 587 365
2009-02-10 0038 409 TM 'Tifto' Tifton GA USA na EM81gi 25 372 231
2009-02-10 0033 402 C Camaguey (Camaguey) CUB ca FL11bj 882 548
2009-02-10 0032 400 OHY 'Coney' Cordele GA USA na EM81bx 25 449 279
2009-02-10 0028 397 BWK Bunkie LA USA na EM30vu 984 611
2009-02-10 0023 374 FLZ Fort Rucker 'Florala Airport' AL USA na EM61ub 489 304
2009-02-10 0023 370 UCM Camaguey (Camaguey) CUB ca FL11aj 350 877 545
2009-02-10 0022 371 FNA 'Florenville' Slidell LA USA na EM50cj 748 465
2009-02-10 0018 365 TOI 'Blood' Troy AL USA na EM61wt 538 334
2009-02-10 0015 360 HIT 'Kaolin Field' Sandersville GA USA na EM83ma 25 548 341
2009-02-10 0013 358 TNY 'Kelso' Fayetteville TN USA na EM65rd 25 869 540
2009-02-10 0010 353 BX 'Carma' Bogalusa LA USA na EM50bv 774 481
2009-02-10 0006 355 CS 'Fenix' Columbus GA USA na EM72lk 538 334
2009-02-09 2353 353 VV 'Junne' Greensboro GA USA na EM83lp 618 384
2009-02-09 2334 344 IWJ 'Early County' Blakely GA USA na EM71ok 25 429 267
2009-02-09 2234 230 UCL Cayo Largo Del Sur (Cayo Largo) CUB ca EL91fo 800 730 453
2009-02-09 2215 209 HOE Homerville GA USA na EM81ob 25 330 205
2009-02-07 0959 353 LI 'Lasky' Little Rock AR USA na EM34uq 400 1179 732
2009-02-05 0129 402 IFJ Winnfield LA USA na EM31qx 1061 659
2009-02-05 0125 380 UMB 'Culvr' Milledgeville GA USA na EM83kd 25 563 350
2009-02-05 0124 372 UQN 'Onyun' Vidalia GA USA na EM82uf 25 459 285
2009-02-05 0122 369 CXU Camilla GA USA na EM71vf 25 383 238
2009-02-05 0118 362 SUR Fitzgerald GA USA na EM81io 25 396 246
2009-02-05 0109 341 FM 'Caloo' Fort Meyers FL USA na EL96am 185 115
2009-02-05 0107 341 CQN 'Daisy' Chattanooga TN USA na EM75kd 50 820 509
2009-02-04 2315 338 FJ Luuce FL USA na EL97sl 216 134
2009-02-04 2313 335 LEE Leesburg FL USA na EL98ct 25 108 67
2009-02-04 2313 332 FIS 'Fish Hook' Key West FL USA na EL94cn 400 401 249
2009-02-04 2312 423 OC 'Jumpi' Ocala FL USA na EL89vb 111 69
2009-02-04 2311 408 SFB Sanford FL USA na EL98js 25 150 93
2009-02-04 2310 417 EVB New Smyrna Beach FL USA na EL99mb 188 117
2009-02-04 2307 269 GN 'Wynds' Gainesville FL USA na EL89vq 25 179 111
2009-02-04 2303 329 CH 'Ashly' Charleston SC USA na EM92wx 400 589 366
2009-02-04 2303 326 PKZ 'Pickens' Pensacola FL USA na EM60jk 400 522 324
2009-02-04 2134 248 MOB 'Wisle' Mobile AL USA na EM50us 400 631 392
2009-02-04 2130 245 GTP 'Patten' Thomasville GA USA na EM80cw 337 210
2009-02-04 2123 221 FX 'Praiz' Fort Lauderdale FL USA na EL96ue 308 191
2009-02-04 2120 219 AY 'Wiket' Waycross GA USA na EM81th 357 222
2009-02-04 2110 204 ESU 'Summerdale' Foley AL USA na EM60dl 25 566 352
2009-02-04 2105 206 GLS Galveston TX USA na EL29oi 2000 1202 747
2009-02-04 2104 198 DIW Dixon NC USA na FM14gn 2000 865 537
2009-02-04 1909 329 ISM 'Kissimmee' Orlando FL USA na EL98gg 49 108 67
2009-02-04 1904 275 FPR Fort Pierce FL USA na EL97tl 49 224 139
2009-02-04 1902 270 TPF 'Knight' Tampa FL USA na EL87sv 25 15
2009-02-04 1901 260 MTH Marathon FL USA na EL94kr 100 401 249
2009-02-04 1859 257 SQT 'Satellite' Melbourne FL USA na EL98pc 180 112
2009-02-04 1858 253 RHZ Zephyrhills FL USA na EL88wf 43 27
2009-02-04 1855 243 IAK Palatka FL USA na EL99cp 25 186 116
2009-02-04 1852 245 SR 'Ringy' Sarasota / Bradenton FL USA na EL87sh 88 55
2009-02-04 1851 242 PJN 'Plantation' Fort Lauderdale FL USA na EL96vd 317 197
2009-02-04 1848 227 LA 'Wirey' Lakeland FL USA na EL87xw 52 33
2009-02-04 1843 221 OR 'Henry' Orlando FL USA na EL98gm 116 72
2009-02-04 1831 206 VNC Venice FL USA na EL87sb 25 116 72
2009-02-04 1830 204 LCQ Lake City FL USA na EM80re 25 232 144
2009-02-04 0558 376 BHC Baxley GA USA na EM81tr 403 251
2009-01-27 1043 414 AZE Hazlehurst GA USA na EM81qv 422 262
2009-01-27 0029 379 BRA 'Broad River' Asheville NC USA na EM85sg 100 797 495
2009-01-27 0001 309 EEX 'Emanuel Co' Swainsboro GA USA na EM82sq 25 510 317
2009-01-26 2134 415 CBC West End (Cayman Brac) CYM ca FK09bq 600 974 605
2009-01-26 2124 392 VEP Vero Beach FL USA na EL97sp 49 211 131
2009-01-26 2122 380 UCY 'Cayabo' Cayajabos (Pinar dal Rio) CUB ca EL82nu 100 585 363
2009-01-26 0937 365 PAL Palma EQA sa FI07cx 1000 3362 2089
2009-01-26 0935 362 SB Sudbury ON CAN na EN96mp 400 2066 1284
2009-01-24 1030 350 BEP 'Bay Creek' Perry GA USA na EM82ck 496 308
2009-01-24 0305 387 SPP San Andres Island / Santander SAP ca EK92do 1725 1072
2009-01-24 0252 385 TKL 'Tikal' Santa Elena Y Flores (Peten) GTM ca EK56bv 1455 904
2009-01-23 1043 376 ZIN Matthew Town / Great Inagua Island BAH ca FL30dx 400 1193 741
2009-01-23 1036 349 AAF Apalachicola FL USA na EL79lr 25 303 188
2009-01-20 0730 344 ZIY George Town / Grand Cayman Island CYM ca EK99hg 989 615
2009-01-17 0523 529 LYQ Morrison TN USA na EM65xo 100 897 557
2009-01-16 0552 344 JA 'Dinns' Jacksonville FL USA na EM90cl 400 274 170
2009-01-09 0640 379 TL 'Wakul' Tallahassee FL USA na EM70th 400 303 188
2009-01-09 0633 368 TP 'Cosme' Tampa FL USA na EL88rc 0 0
2009-01-09 0631 360 PI 'Capok' St Petersburg / Clearwater FL USA na EL87px 21 13
2009-01-09 0602 526 ZLS Stella Maris, Long Island BAH ca FL23in 884 549
2009-01-09 0554 413 CBC Anahuac TX USA na EL29qs 25 1190 739
2009-01-09 0549 391 DDP San Juan / Dorado / Luiz Munoz Marin Intl PR PTR ca FK68tl 2000 1964 1220
2009-01-09 0547 346 PCM Plant City FL USA na EL88wa 25 42 26
2009-01-09 0538 216 CLB Wilmington / Carolina Beach NC USA na FM14ac 797 495
2004-12-13 0344 330 CZM Cozumel (Quintana Roo) MEX ca EL60mm 954 593
2003-12-03 0441 430 VA Varadero (Villa Clara) CUB ca EL92fx 578 359